logo
Search for airport 
image banner adimage banner adimage banner ad
image banner ad

EPGB - Golubie

Located in , Poland

ICAO - , IATA -

Data provided by Airmate  

General information

Coordinates: N54°11'51" E18°0'9"
Elevation is 548 feet MSL.
 
View others Airports in Pomerania

Operational data

Special qualification required
Current time UTC:
Current local time:
Weather at : EPCE - Cewice ( 29 km )
TAF: TAF EPCE 141700Z 1418/1506 15006KT CAVOK TEMPO 1420/1506 4000 BR PROB30 TEMPO 1420/1506 0500 FG BKN002
View NOTAMs / SUP AIP / TFR affecting this airport [VIEW]
Communications frequencies: [VIEW]

Runways:

Airport contact information

Address: Poland

Satellite view of EPGB